Time;durP1;ratioP1;P1;durP2;ratioP2;P2;SDS_P1;SDS_P2;PMS_P1;PMS_P2;Temp;Humidity;BMP_temperature;BMP_pressure;BME280_temperature;BME280_humidity;BME280_pressure;Samples;Min_cycle;Max_cycle;Signal;HPM_P1;HPM_P2
2023/01/24 00:00:15;;;;;;;34.80;20.33;;;;;;;4.77;76.44;102065.19;5032167;28;20053;-78
2023/01/24 00:02:41;;;;;;;32.90;19.67;;;;;;;4.76;76.73;102061.75;5032270;28;20056;-77
2023/01/24 00:05:08;;;;;;;33.33;19.73;;;;;;;4.77;76.38;102050.44;5014381;28;20072;-78
2023/01/24 00:07:34;;;;;;;38.10;20.50;;;;;;;4.77;76.50;102055.66;5031853;28;20136;-78
2023/01/24 00:10:01;;;;;;;35.55;19.92;;;;;;;4.78;76.66;102059.09;5031881;28;20068;-78
2023/01/24 00:12:28;;;;;;;37.10;20.17;;;;;;;4.77;76.66;102055.66;5031688;28;20140;-78
2023/01/24 00:14:57;;;;;;;33.33;18.65;;;;;;;4.78;76.54;102053.88;5031922;28;20137;-78
2023/01/24 00:17:24;;;;;;;33.85;18.23;;;;;;;4.77;76.56;102049.53;5031559;28;20092;-78
2023/01/24 00:19:50;;;;;;;31.95;19.05;;;;;;;4.77;76.46;102044.31;5031816;28;20107;-78
2023/01/24 00:22:17;;;;;;;34.35;19.77;;;;;;;4.77;76.30;102049.53;5013915;28;20061;-78
2023/01/24 00:24:44;;;;;;;29.60;17.65;;;;;;;4.75;76.44;102046.06;5031088;28;20103;-78
2023/01/24 00:27:10;;;;;;;29.85;17.13;;;;;;;4.75;76.22;102048.69;5031503;28;20081;-78
2023/01/24 00:29:36;;;;;;;32.55;18.95;;;;;;;4.73;76.40;102051.28;5031738;28;20247;-79
2023/01/24 00:32:03;;;;;;;31.05;18.08;;;;;;;4.73;76.52;102056.50;5031519;28;20391;-78
2023/01/24 00:34:30;;;;;;;28.23;15.93;;;;;;;4.72;76.01;102053.88;5031553;28;20050;-79
2023/01/24 00:36:56;;;;;;;22.67;14.82;;;;;;;4.69;76.17;102055.63;5031092;28;20049;-78
2023/01/24 00:39:23;;;;;;;24.42;14.95;;;;;;;4.68;76.42;102050.41;5031338;28;20081;-78
2023/01/24 00:41:49;;;;;;;22.92;14.32;;;;;;;4.67;76.23;102051.22;5031315;28;20460;-79
2023/01/24 00:44:16;;;;;;;23.45;14.82;;;;;;;4.64;76.50;102052.09;5031529;28;20096;-78
2023/01/24 00:46:42;;;;;;;24.58;15.55;;;;;;;4.64;76.41;102051.25;5031101;28;20060;-78
2023/01/24 00:49:09;;;;;;;23.02;14.88;;;;;;;4.63;76.27;102049.50;5031023;28;20054;-78
2023/01/24 00:51:36;;;;;;;24.33;15.20;;;;;;;4.62;76.31;102037.31;5031427;28;20053;-78
2023/01/24 00:54:03;;;;;;;22.02;14.52;;;;;;;4.61;76.45;102041.66;5030946;28;20056;-78
2023/01/24 00:56:29;;;;;;;25.35;14.57;;;;;;;4.61;76.12;102026.00;5030958;28;20058;-78
2023/01/24 00:58:56;;;;;;;22.67;13.85;;;;;;;4.58;76.29;102020.78;5030970;28;20107;-78
2023/01/24 01:01:22;;;;;;;21.73;13.65;;;;;;;4.56;76.31;102022.47;5031200;28;20053;-78
2023/01/24 01:03:49;;;;;;;20.73;13.25;;;;;;;4.53;76.24;102028.56;5030976;28;20054;-78
2023/01/24 01:06:16;;;;;;;22.27;14.20;;;;;;;4.51;76.51;102029.41;5030831;28;20064;-77
2023/01/24 01:08:42;;;;;;;20.73;13.40;;;;;;;4.49;76.50;102029.41;5030627;28;20088;-78
2023/01/24 01:11:09;;;;;;;19.20;12.75;;;;;;;4.48;76.65;102025.06;5030942;28;20107;-78
2023/01/24 01:13:36;;;;;;;20.52;12.68;;;;;;;4.47;76.66;102022.44;5030872;28;20081;-78
2023/01/24 01:16:09;;;;;;;18.80;13.07;;;;;;;4.43;75.62;102022.44;5030744;28;20399;-78
2023/01/24 01:18:37;;;;;;;20.13;13.00;;;;;;;4.43;76.41;102040.72;5030738;28;20059;-78
2023/01/24 01:21:04;;;;;;;21.50;13.07;;;;;;;4.41;76.38;102018.09;5030759;28;20075;-79
2023/01/24 01:23:32;;;;;;;21.15;13.50;;;;;;;4.40;76.41;102025.03;5030725;28;20203;-78
2023/01/24 01:26:04;;;;;;;20.67;12.68;;;;;;;4.38;76.05;102033.72;5030741;28;20063;-78
2023/01/24 01:28:31;;;;;;;22.33;13.18;;;;;;;4.39;76.51;102032.84;5012877;28;20127;-78
2023/01/24 01:30:58;;;;;;;21.15;13.85;;;;;;;4.38;76.49;102033.72;5030553;28;20061;-79
2023/01/24 01:33:25;;;;;;;19.75;13.27;;;;;;;4.35;76.71;102024.13;5030520;28;20120;-78
2023/01/24 01:35:51;;;;;;;19.88;13.32;;;;;;;4.35;76.88;102031.06;5029324;28;20387;-78
2023/01/24 01:38:19;;;;;;;22.10;13.40;;;;;;;4.34;76.84;102027.59;5013085;28;20068;-79
2023/01/24 01:40:45;;;;;;;21.90;14.25;;;;;;;4.33;76.69;102025.84;5030496;28;20068;-78
2023/01/24 01:43:14;;;;;;;23.48;14.30;;;;;;;4.32;76.73;102024.13;5030592;28;20057;-78
2023/01/24 01:45:44;;;;;;;21.80;14.07;;;;;;;4.33;76.60;102019.78;5012588;28;20049;-78
2023/01/24 01:48:17;;;;;;;23.38;14.77;;;;;;;4.34;76.74;102013.69;5030187;28;20748;-78
2023/01/24 01:50:50;;;;;;;24.00;14.93;;;;;;;4.33;76.29;102015.41;5030557;28;20506;-78
2023/01/24 01:53:18;;;;;;;23.45;13.70;;;;;;;4.35;76.52;102005.88;5030603;28;20061;-78
2023/01/24 01:55:50;;;;;;;24.55;15.00;;;;;;;4.32;76.14;102004.97;5030183;28;20081;-78
2023/01/24 01:58:17;;;;;;;23.02;14.23;;;;;;;4.32;76.45;102013.69;5030423;28;20057;-77
2023/01/24 02:00:49;;;;;;;24.55;14.80;;;;;;;4.30;76.66;102012.81;5012539;28;20058;-78
2023/01/24 02:03:37;;;;;;;25.10;14.52;;;;;;;4.26;76.08;102008.44;5030358;28;20525;-79
2023/01/24 02:06:07;;;;;;;23.85;14.07;;;;;;;4.27;76.35;102010.19;5030104;28;20509;-78
2023/01/24 02:08:34;;;;;;;22.23;14.13;;;;;;;4.26;76.76;102011.91;5012533;28;20057;-78
2023/01/24 02:13:46;;;;;;;23.00;15.20;;;;;;;4.26;76.67;102013.66;5030334;28;20058;-79
2023/01/24 02:16:15;;;;;;;23.05;14.73;;;;;;;4.24;76.69;102012.75;5029908;28;20054;-78
2023/01/24 02:18:43;;;;;;;25.50;15.13;;;;;;;4.24;76.72;102016.25;5030155;28;20054;-78
2023/01/24 02:21:18;;;;;;;23.02;14.32;;;;;;;4.22;76.17;102017.13;5012424;28;20081;-78
2023/01/24 02:24:12;;;;;;;22.25;13.35;;;;;;;4.22;75.96;102017.13;5030538;28;20057;-78
2023/01/24 02:26:40;;;;;;;20.08;13.07;;;;;;;4.26;76.94;102021.47;5029790;28;20119;-78
2023/01/24 02:29:12;;;;;;;21.85;13.52;;;;;;;4.23;76.40;102011.03;5029984;28;20630;-77
2023/01/24 02:31:56;;;;;;;20.67;12.85;;;;;;;4.21;75.74;102013.63;5030011;28;20057;-77
2023/01/24 02:34:23;;;;;;;24.10;13.63;;;;;;;4.24;76.54;102008.44;5030107;28;20054;-78
2023/01/24 02:36:53;;;;;;;21.25;13.25;;;;;;;4.23;76.44;102009.28;5029724;28;20061;-78
2023/01/24 02:39:28;;;;;;;20.05;12.43;;;;;;;4.23;76.32;102016.25;5030152;28;20053;-78
2023/01/24 02:42:14;;;;;;;18.55;12.77;;;;;;;4.22;75.74;102006.69;5012288;28;20501;-78
2023/01/24 02:44:41;;;;;;;18.10;11.02;;;;;;;4.26;76.76;102004.09;5029857;28;20057;-77
2023/01/24 02:47:08;;;;;;;18.85;11.15;;;;;;;4.27;76.57;102012.78;5031506;28;20084;-78
2023/01/24 02:49:34;;;;;;;15.77;10.70;;;;;;;4.26;76.50;102006.69;5033622;28;20072;-78
2023/01/24 02:54:46;;;;;;;16.67;9.65;;;;;;;4.24;76.34;102010.16;5033275;28;20497;-78
2023/01/24 02:59:57;;;;;;;15.15;9.23;;;;;;;4.23;76.30;102003.22;5033371;28;20076;-78
2023/01/24 03:02:24;;;;;;;14.45;10.02;;;;;;;4.22;76.52;102004.94;5033153;28;20054;-78
2023/01/24 03:04:50;;;;;;;15.38;10.18;;;;;;;4.22;76.31;101996.25;5033074;28;20058;-78
2023/01/24 03:07:17;;;;;;;15.18;9.70;;;;;;;4.20;76.33;101991.03;5033036;28;20111;-78
2023/01/24 03:09:46;;;;;;;15.20;10.43;;;;;;;4.21;76.64;101999.69;5015434;28;20489;-79
2023/01/24 03:34:29;;;;;;;18.35;11.30;;;;;;;4.20;76.12;102000.56;5032426;28;20053;-78
2023/01/24 03:36:56;;;;;;;17.25;10.65;;;;;;;4.17;76.45;102001.44;5032671;28;20148;-78
2023/01/24 03:42:07;;;;;;;15.40;10.25;;;;;;;4.14;76.27;102010.09;5032584;28;20081;-78
2023/01/24 03:44:33;;;;;;;13.73;9.52;;;;;;;4.14;76.49;102010.09;5032260;28;20057;-77
2023/01/24 03:47:00;;;;;;;14.85;10.05;;;;;;;4.14;76.43;102007.50;5032414;28;20053;-78
2023/01/24 03:52:29;;;;;;;16.08;9.88;;;;;;;4.15;76.16;102011.84;5032552;28;20068;-78
2023/01/24 03:54:58;;;;;;;12.48;9.13;;;;;;;4.14;76.36;102012.72;5014352;28;20062;-78
2023/01/24 03:57:25;;;;;;;15.40;10.50;;;;;;;4.13;76.34;102013.59;5013916;28;20468;-78
2023/01/24 03:59:52;;;;;;;16.15;11.18;;;;;;;4.14;76.33;102009.22;5031650;28;20081;-78
2023/01/24 04:02:19;;;;;;;15.23;10.70;;;;;;;4.13;76.18;102005.75;5032077;28;20053;-77
2023/01/24 04:07:32;;;;;;;17.35;11.63;;;;;;;4.17;76.30;102009.25;5031983;28;20140;-78
2023/01/24 04:09:58;;;;;;;16.10;11.13;;;;;;;4.20;76.41;102011.00;5031655;28;20056;-78
2023/01/24 04:12:25;;;;;;;13.50;10.20;;;;;;;4.20;76.48;102017.09;5032144;28;20136;-78
2023/01/24 04:14:52;;;;;;;14.70;10.07;;;;;;;4.21;76.14;102011.00;5031871;28;20050;-78
2023/01/24 04:17:18;;;;;;;13.75;10.50;;;;;;;4.21;76.05;102012.75;5076635;23;20080;-78
2023/01/24 04:19:45;;;;;;;15.85;10.23;;;;;;;4.21;75.89;102005.81;5031480;28;20088;-78
2023/01/24 04:22:11;;;;;;;14.45;10.80;;;;;;;4.20;76.01;102014.50;5031308;28;20060;-78
2023/01/24 04:24:38;;;;;;;16.95;11.07;;;;;;;4.19;76.09;102017.09;5031366;28;20054;-78
2023/01/24 04:27:04;;;;;;;15.18;11.10;;;;;;;4.18;75.88;102005.78;5030961;28;20081;-78
2023/01/24 04:29:30;;;;;;;16.80;11.68;;;;;;;4.15;76.28;101998.81;5031064;28;20085;-78
2023/01/24 04:31:57;;;;;;;14.63;10.68;;;;;;;4.16;76.13;102002.31;5031172;28;20062;-78
2023/01/24 04:34:23;;;;;;;14.70;10.85;;;;;;;4.15;76.04;102006.63;5031046;28;20526;-78
2023/01/24 04:36:49;;;;;;;15.07;11.80;;;;;;;4.14;75.93;102004.91;5031166;28;20085;-78
2023/01/24 04:39:16;;;;;;;19.40;11.93;;;;;;;4.13;75.93;102004.88;5031010;28;20492;-79
2023/01/24 04:41:42;;;;;;;14.25;10.68;;;;;;;4.12;76.22;102006.59;5031024;28;20057;-78
2023/01/24 04:44:08;;;;;;;17.67;12.32;;;;;;;4.13;76.33;102010.09;5030921;28;20095;-78
2023/01/24 04:46:35;;;;;;;16.38;11.80;;;;;;;4.14;76.40;102010.09;5030334;28;20053;-78
2023/01/24 04:49:01;;;;;;;16.38;10.98;;;;;;;4.16;76.20;102007.50;5030717;28;20053;-78
2023/01/24 04:51:28;;;;;;;15.20;10.32;;;;;;;4.15;75.99;102000.56;5030645;28;20057;-78
2023/01/24 04:53:54;;;;;;;12.90;9.57;;;;;;;4.16;75.84;102010.13;5030561;28;20107;-78
2023/01/24 04:56:21;;;;;;;13.70;9.27;;;;;;;4.15;76.17;102003.16;5030656;28;20065;-78
2023/01/24 04:58:47;;;;;;;13.35;9.45;;;;;;;4.14;75.82;102004.00;5012909;28;20085;-78
2023/01/24 05:01:13;;;;;;;13.05;9.27;;;;;;;4.14;75.73;102006.63;5030498;28;20054;-78
2023/01/24 05:03:40;;;;;;;16.92;11.38;;;;;;;4.13;76.07;102002.28;5030492;28;20093;-78
2023/01/24 05:06:06;;;;;;;12.73;9.50;;;;;;;4.12;76.00;102014.41;5030135;28;20081;-78
2023/01/24 05:08:32;;;;;;;14.75;10.88;;;;;;;4.12;76.18;102021.38;5030230;28;20124;-78
2023/01/24 05:11:03;;;;;;;15.68;11.70;;;;;;;4.11;75.59;102011.84;5030483;28;20057;-78
2023/01/24 05:13:29;;;;;;;15.23;11.15;;;;;;;4.12;76.27;102009.22;5030440;28;20108;-78
2023/01/24 05:15:56;;;;;;;13.20;9.40;;;;;;;4.12;76.08;102014.41;5012602;28;20573;-78
2023/01/24 05:18:22;;;;;;;13.90;10.07;;;;;;;4.13;75.99;102021.41;5030041;28;20053;-78
2023/01/24 05:20:48;;;;;;;13.90;9.95;;;;;;;4.12;75.87;102013.56;5030418;28;20111;-78
2023/01/24 05:23:15;;;;;;;13.77;9.80;;;;;;;4.10;75.95;102015.28;5012757;28;20542;-78
2023/01/24 05:25:42;;;;;;;14.27;9.82;;;;;;;4.10;75.78;102017.88;5030216;28;20049;-78
2023/01/24 05:28:08;;;;;;;16.23;11.10;;;;;;;4.09;76.06;102017.03;5029844;28;20111;-79
2023/01/24 05:30:34;;;;;;;17.25;11.77;;;;;;;4.10;76.09;102023.97;5030136;28;20115;-79
2023/01/24 05:33:01;;;;;;;15.32;11.35;;;;;;;4.12;76.11;102024.84;5012488;28;20147;-78
2023/01/24 05:35:27;;;;;;;17.20;12.60;;;;;;;4.13;76.01;102020.50;5029776;28;20049;-78
2023/01/24 05:37:53;;;;;;;15.98;11.95;;;;;;;4.15;75.98;102011.84;5029965;28;20053;-79
2023/01/24 05:40:20;;;;;;;13.15;10.43;;;;;;;4.16;75.73;102021.41;5012734;28;20061;-78
2023/01/24 05:42:46;;;;;;;13.48;9.93;;;;;;;4.19;75.69;102022.31;5030056;28;20100;-78
2023/01/24 05:45:13;;;;;;;14.02;9.68;;;;;;;4.17;75.45;102024.88;5012382;28;20062;-78
2023/01/24 05:47:39;;;;;;;13.32;9.50;;;;;;;4.15;75.44;102024.88;5029865;28;20574;-78
2023/01/24 05:50:06;;;;;;;12.93;9.40;;;;;;;4.13;75.53;102030.94;5029911;28;20115;-78
2023/01/24 05:52:32;;;;;;;13.80;9.32;;;;;;;4.11;75.53;102035.28;5029829;28;20420;-79
2023/01/24 05:54:58;;;;;;;11.93;9.32;;;;;;;4.08;75.60;102033.53;5029929;28;20085;-78
2023/01/24 05:57:24;;;;;;;12.32;9.00;;;;;;;4.06;75.55;102030.03;5029832;28;20084;-78
2023/01/24 05:59:51;;;;;;;11.95;9.45;;;;;;;4.06;75.60;102035.25;5030355;28;20065;-78
2023/01/24 06:02:18;;;;;;;16.23;10.50;;;;;;;4.04;75.65;102043.06;5030018;28;20115;-78
2023/01/24 06:04:44;;;;;;;13.93;10.20;;;;;;;4.04;75.58;102034.38;5030016;28;20061;-78
2023/01/24 06:07:11;;;;;;;15.98;11.15;;;;;;;4.04;75.60;102043.06;5029999;28;20080;-78
2023/01/24 06:09:37;;;;;;;14.23;10.93;;;;;;;4.05;75.70;102049.16;5029979;28;20108;-78
2023/01/24 06:12:04;;;;;;;17.45;12.45;;;;;;;4.05;75.75;102043.94;5029790;28;20132;-78
2023/01/24 06:14:30;;;;;;;16.05;11.52;;;;;;;4.06;75.57;102043.06;5029578;28;20081;-78
2023/01/24 06:16:56;;;;;;;15.13;11.27;;;;;;;4.07;75.76;102043.94;5029071;28;20058;-78
2023/01/24 06:19:25;;;;;;;13.57;10.82;;;;;;;4.08;75.52;102050.91;5029496;28;20053;-78
2023/01/24 06:22:16;;;;;;;14.30;10.95;;;;;;;4.05;74.38;102046.53;5031637;28;20084;-78
2023/01/24 06:24:42;;;;;;;15.40;10.20;;;;;;;4.09;75.67;102045.69;5033225;28;20511;-78
2023/01/24 06:27:09;;;;;;;14.40;10.15;;;;;;;4.08;75.41;102045.69;5033147;28;20057;-78
2023/01/24 06:29:36;;;;;;;13.80;9.60;;;;;;;4.06;75.36;102037.84;5033414;28;20061;-78
2023/01/24 06:32:11;;;;;;;12.70;9.68;;;;;;;4.03;75.11;102049.13;5033953;28;20061;-78
2023/01/24 06:35:00;;;;;;;13.65;10.60;;;;;;;3.98;74.36;102045.63;5033547;28;20060;-78
2023/01/24 06:37:41;;;;;;;13.30;9.68;;;;;;;3.96;74.43;102044.72;5033371;28;20050;-78
2023/01/24 06:40:10;;;;;;;13.40;9.73;;;;;;;3.98;75.32;102053.44;5033321;28;20566;-78
2023/01/24 06:42:36;;;;;;;13.38;9.88;;;;;;;3.97;75.54;102054.31;5033340;28;20057;-79
2023/01/24 06:45:04;;;;;;;13.38;9.57;;;;;;;3.96;75.63;102067.31;5033004;28;20579;-79
2023/01/24 06:47:31;;;;;;;13.77;10.80;;;;;;;3.97;75.70;102056.03;5033121;28;20135;-79
2023/01/24 06:49:58;;;;;;;16.95;11.25;;;;;;;3.95;75.54;102058.63;5033163;28;20057;-79
2023/01/24 06:52:24;;;;;;;14.95;11.32;;;;;;;3.94;75.61;102063.81;5015515;28;20107;-79
2023/01/24 06:54:50;;;;;;;17.48;12.55;;;;;;;3.95;75.73;102062.94;5033087;28;20409;-80
2023/01/24 06:57:17;;;;;;;18.83;12.85;;;;;;;3.94;75.77;102059.47;5032968;28;20057;-79
2023/01/24 06:59:43;;;;;;;16.65;12.10;;;;;;;3.96;75.73;102068.16;5033455;28;20057;-79
2023/01/24 07:02:10;;;;;;;17.38;12.50;;;;;;;3.96;75.75;102062.09;5033029;28;20117;-79
2023/01/24 07:04:36;;;;;;;18.13;13.15;;;;;;;3.98;75.88;102062.97;5032716;28;20054;-79
2023/01/24 07:07:05;;;;;;;18.33;13.10;;;;;;;3.98;75.80;102066.47;5032467;28;20057;-79
2023/01/24 07:09:32;;;;;;;17.13;12.07;;;;;;;3.99;75.76;102059.50;5032943;28;20053;-79
2023/01/24 07:11:58;;;;;;;14.13;10.60;;;;;;;3.97;75.49;102058.63;5032897;28;20081;-79
2023/01/24 07:14:25;;;;;;;15.60;10.77;;;;;;;3.96;75.48;102068.16;5032702;28;20515;-79
2023/01/24 07:16:55;;;;;;;12.90;9.75;;;;;;;3.94;75.43;102064.69;5014637;28;20057;-78
2023/01/24 07:19:23;;;;;;;13.90;10.18;;;;;;;3.94;75.67;102080.34;5032629;28;20057;-79
2023/01/24 07:21:50;;;;;;;12.93;9.80;;;;;;;3.92;75.85;102082.03;5032543;28;20111;-79
2023/01/24 07:24:19;;;;;;;12.50;10.05;;;;;;;3.90;75.57;102084.63;5032598;28;20057;-79
2023/01/24 07:26:46;;;;;;;12.52;9.57;;;;;;;3.90;75.82;102083.78;5032254;28;20049;-78
2023/01/24 07:29:12;;;;;;;12.18;9.80;;;;;;;3.89;75.86;102087.25;5032597;28;20080;-78
2023/01/24 07:31:38;;;;;;;13.35;9.75;;;;;;;3.90;75.88;102088.97;5032380;28;20463;-78
2023/01/24 07:34:05;;;;;;;13.57;10.13;;;;;;;3.90;75.77;102089.84;5031096;28;20111;-79
2023/01/24 07:36:31;;;;;;;12.50;9.95;;;;;;;3.89;75.51;102092.47;5032146;28;20140;-79
2023/01/24 07:38:58;;;;;;;15.68;10.98;;;;;;;3.90;75.36;102102.00;5032495;28;20120;-79
2023/01/24 07:41:24;;;;;;;12.23;9.65;;;;;;;3.88;75.47;102093.28;5032177;28;20495;-79
2023/01/24 07:43:50;;;;;;;12.85;9.38;;;;;;;3.88;75.28;102101.09;5032149;28;20099;-79
2023/01/24 07:46:18;;;;;;;11.30;8.90;;;;;;;3.86;75.65;102097.63;5031783;28;20049;-79
2023/01/24 07:48:45;;;;;;;12.68;9.50;;;;;;;3.87;75.62;102101.97;5031832;28;20145;-79
2023/01/24 07:51:11;;;;;;;11.82;8.85;;;;;;;3.85;75.85;102099.34;5031937;28;20492;-79
2023/01/24 07:53:38;;;;;;;13.25;10.70;;;;;;;3.86;75.65;102100.22;5031786;28;20533;-79
2023/01/24 07:56:05;;;;;;;15.05;9.95;;;;;;;3.87;75.49;102104.59;5013957;28;20451;-79
2023/01/24 07:58:35;;;;;;;13.57;9.80;;;;;;;3.87;75.70;102099.38;5014539;28;20521;-79
2023/01/24 08:01:02;;;;;;;14.05;11.10;;;;;;;3.89;75.82;102103.72;5031684;28;20061;-79
2023/01/24 08:03:28;;;;;;;16.60;12.52;;;;;;;3.91;75.74;102103.75;5031559;28;20092;-79
2023/01/24 08:05:54;;;;;;;16.35;11.93;;;;;;;3.94;75.86;102106.38;5013811;28;20471;-79
2023/01/24 08:08:21;;;;;;;12.88;11.20;;;;;;;3.95;75.67;102102.91;5031188;28;20085;-79
2023/01/24 08:10:47;;;;;;;15.10;10.25;;;;;;;3.96;75.59;102111.63;5031155;28;20096;-80
2023/01/24 08:13:13;;;;;;;12.63;10.40;;;;;;;3.97;75.83;102100.34;5031327;28;20091;-80
2023/01/24 08:15:40;;;;;;;13.60;10.32;;;;;;;3.96;75.31;102109.00;5031220;28;20060;-80
2023/01/24 08:18:06;;;;;;;12.68;10.25;;;;;;;3.96;75.36;102114.22;5031061;28;20081;-80
2023/01/24 08:20:32;;;;;;;11.02;9.20;;;;;;;3.95;75.31;102102.91;5031492;28;20089;-79
2023/01/24 08:22:59;;;;;;;10.70;9.02;;;;;;;3.91;75.70;102102.03;5031245;28;20444;-79
2023/01/24 08:25:26;;;;;;;11.20;8.88;;;;;;;3.90;75.72;102113.28;5030918;28;20144;-79
2023/01/24 08:27:53;;;;;;;11.10;9.18;;;;;;;3.88;75.45;102111.53;5030894;28;20144;-80
2023/01/24 08:30:20;;;;;;;11.45;9.88;;;;;;;3.87;75.33;102113.28;5013451;28;20053;-80
2023/01/24 08:32:47;;;;;;;10.30;8.27;;;;;;;3.87;75.48;102115.00;5031266;28;20049;-79
2023/01/24 08:35:13;;;;;;;9.18;7.80;;;;;;;3.85;75.39;102116.75;5013458;28;20080;-80
2023/01/24 08:37:39;;;;;;;11.45;8.57;;;;;;;3.83;75.52;102113.22;5030777;28;20053;-80
2023/01/24 08:40:07;;;;;;;11.98;10.07;;;;;;;3.81;75.78;102117.56;5030853;28;20531;-80
2023/01/24 08:42:35;;;;;;;14.55;10.18;;;;;;;3.81;75.47;102125.38;5030791;28;20116;-80
2023/01/24 08:45:02;;;;;;;10.75;8.70;;;;;;;3.81;75.63;102118.41;5030597;28;20080;-81
2023/01/24 08:47:28;;;;;;;12.02;9.32;;;;;;;3.81;75.68;102118.41;5030617;28;20053;-79
2023/01/24 08:49:54;;;;;;;11.98;8.90;;;;;;;3.81;75.76;102125.38;5030701;28;20096;-80
2023/01/24 08:52:21;;;;;;;10.43;8.80;;;;;;;3.82;75.71;102127.13;5030725;28;20137;-80
2023/01/24 08:54:47;;;;;;;11.85;9.65;;;;;;;3.82;76.02;102132.34;5030614;28;20061;-81
2023/01/24 08:57:14;;;;;;;11.70;9.80;;;;;;;3.83;75.77;102136.69;5030339;28;20558;-80
2023/01/24 08:59:40;;;;;;;13.02;10.23;;;;;;;3.85;75.90;102137.56;5030472;28;20050;-80
2023/01/24 09:02:12;;;;;;;14.50;10.95;;;;;;;3.85;75.70;102137.56;5030553;28;20115;-80
2023/01/24 09:04:39;;;;;;;11.45;9.23;;;;;;;3.88;75.90;102142.78;5012982;28;20053;-80
2023/01/24 09:07:05;;;;;;;10.57;7.82;;;;;;;3.89;75.77;102148.03;5030093;28;20053;-80
2023/01/24 09:09:31;;;;;;;10.65;9.15;;;;;;;3.90;76.16;102141.09;5012820;28;20111;-80
2023/01/24 09:11:58;;;;;;;11.30;9.32;;;;;;;3.92;76.18;102144.56;5030052;28;20049;-79
2023/01/24 09:14:24;;;;;;;12.05;9.57;;;;;;;3.95;76.03;102144.63;5030278;28;20569;-80
2023/01/24 09:16:50;;;;;;;12.65;9.18;;;;;;;3.98;76.14;102149.88;5029838;28;20057;-81
2023/01/24 09:19:17;;;;;;;11.32;8.50;;;;;;;4.00;76.25;102145.53;5030472;28;20066;-79
2023/01/24 09:21:44;;;;;;;9.85;8.25;;;;;;;4.01;75.64;102155.06;5030212;28;20103;-80
2023/01/24 09:24:10;;;;;;;9.23;7.93;;;;;;;4.00;75.66;102150.72;5030646;28;20077;-80
2023/01/24 09:26:37;;;;;;;11.80;8.88;;;;;;;3.99;75.54;102154.22;5029660;28;20111;-79
2023/01/24 09:29:04;;;;;;;10.85;9.13;;;;;;;4.00;75.87;102153.34;5030391;28;20463;-80
2023/01/24 09:31:30;;;;;;;11.85;9.65;;;;;;;4.02;75.86;102155.97;5030105;28;20049;-80
2023/01/24 09:33:57;;;;;;;13.95;10.35;;;;;;;4.04;76.04;102149.91;5030120;28;20085;-80
2023/01/24 09:36:25;;;;;;;14.13;10.05;;;;;;;4.09;75.84;102156.91;5029975;28;20053;-79
2023/01/24 09:38:52;;;;;;;11.68;9.70;;;;;;;4.10;75.86;102163.84;5029795;28;20527;-80
2023/01/24 09:42:10;;;;;;;10.43;9.32;;;;;;;4.09;74.53;102160.38;5029994;28;20057;-80
2023/01/24 09:44:53;;;;;;;10.07;8.98;;;;;;;4.10;74.28;102162.13;5028962;28;20574;-80
2023/01/24 09:47:51;;;;;;;13.63;10.02;;;;;;;4.11;73.88;102160.41;5029801;28;20111;-79
2023/01/24 09:50:29;;;;;;;13.23;8.43;;;;;;;4.12;74.04;102163.00;5029948;28;20054;-79
2023/01/24 09:52:57;;;;;;;9.90;8.50;;;;;;;4.15;75.38;102160.44;5029826;28;20107;-79
2023/01/24 09:55:32;;;;;;;9.00;8.05;;;;;;;4.14;74.41;102165.63;5012368;28;20060;-80
2023/01/24 09:58:01;;;;;;;9.40;7.90;;;;;;;4.14;74.80;102163.03;5033203;28;20508;-80
2023/01/24 10:00:31;;;;;;;9.70;7.78;;;;;;;4.12;74.93;102167.34;5033986;28;20057;-79
2023/01/24 10:02:59;;;;;;;10.30;7.60;;;;;;;4.11;75.18;102171.69;5016380;28;20053;-79
2023/01/24 10:05:38;;;;;;;8.98;7.40;;;;;;;4.06;74.14;102157.75;5033790;28;20103;-80
2023/01/24 10:08:24;;;;;;;9.18;7.90;;;;;;;4.11;75.48;102157.81;5033472;28;20057;-79
2023/01/24 10:11:00;;;;;;;12.82;9.32;;;;;;;4.11;75.42;102155.19;5033882;28;20749;-80
2023/01/24 10:13:26;;;;;;;12.35;9.32;;;;;;;4.12;75.90;102152.56;5016281;28;20061;-79
2023/01/24 10:16:24;;;;;;;12.43;9.45;;;;;;;4.13;74.75;102163.88;5033752;28;20472;-79
2023/01/24 10:19:02;;;;;;;10.93;8.95;;;;;;;4.17;74.78;102160.44;4925619;22;20483;-79
2023/01/24 10:21:38;;;;;;;10.88;9.13;;;;;;;4.22;75.86;102160.50;5034223;28;20050;-78
2023/01/24 10:24:15;;;;;;;9.65;8.60;;;;;;;4.22;74.76;102156.13;5034519;28;20060;-79
2023/01/24 10:26:50;;;;;;;9.90;7.15;;;;;;;4.24;74.50;102159.66;5034193;28;20049;-78
2023/01/24 10:29:21;;;;;;;9.10;7.35;;;;;;;4.25;74.98;102156.16;5034373;28;20072;-79
2023/01/24 10:32:01;;;;;;;8.45;7.07;;;;;;;4.26;75.10;102154.44;5034187;28;20409;-78
2023/01/24 10:34:36;;;;;;;9.27;7.43;;;;;;;4.26;75.26;102150.09;5034320;28;20115;-79
2023/01/24 10:37:09;;;;;;;8.55;7.60;;;;;;;4.26;74.39;102155.31;5033939;28;20053;-79
2023/01/24 10:39:37;;;;;;;8.68;7.47;;;;;;;4.29;75.80;102157.06;5034073;28;20068;-79
2023/01/24 10:42:25;;;;;;;11.35;8.80;;;;;;;4.28;74.47;102158.81;5016419;28;20140;-79
2023/01/24 10:44:55;;;;;;;10.02;8.80;;;;;;;4.34;75.65;102144.94;5033795;28;20056;-77
2023/01/24 10:47:45;;;;;;;10.43;8.57;;;;;;;4.35;74.67;102151.91;5033811;28;20141;-77
2023/01/24 10:50:17;;;;;;;9.43;8.02;;;;;;;4.41;75.46;102143.28;5034048;28;20057;-77
2023/01/24 10:52:48;;;;;;;9.53;8.50;;;;;;;4.45;75.41;102146.75;5033668;28;20057;-77
2023/01/24 10:55:36;;;;;;;11.32;8.95;;;;;;;4.41;74.24;102144.13;5033574;28;20057;-77
2023/01/24 10:58:26;;;;;;;10.90;8.77;;;;;;;4.44;74.00;102143.28;5033437;28;20104;-78
2023/01/24 11:01:04;;;;;;;11.77;8.80;;;;;;;4.46;74.29;102144.16;5033587;28;20058;-77
2023/01/24 11:03:34;;;;;;;9.85;8.85;;;;;;;4.50;75.37;102129.41;5016150;28;20067;-80
2023/01/24 11:06:02;;;;;;;13.05;9.93;;;;;;;4.50;75.52;102130.28;5033418;28;20053;-79
2023/01/24 11:08:35;;;;;;;11.95;9.18;;;;;;;4.49;74.16;102138.09;5033204;28;20082;-77
2023/01/24 11:11:02;;;;;;;;;;;;;;;4.51;73.49;102136.34;5016103;28;20112;-78
2023/01/24 11:13:40;;;;;;;9.07;7.80;;;;;;;4.50;74.08;102127.69;5033157;28;19939;-77
2023/01/24 11:16:15;;;;;;;9.00;7.68;;;;;;;4.47;73.45;102122.44;5033339;28;20080;-77
2023/01/24 11:18:52;;;;;;;8.80;7.80;;;;;;;4.45;73.72;102124.13;5032967;28;20509;-77
2023/01/24 11:21:19;;;;;;;10.02;7.60;;;;;;;4.46;74.69;102118.09;5033172;28;20059;-77
2023/01/24 11:24:19;;;;;;;9.05;7.63;;;;;;;4.40;73.33;102118.03;5033033;28;20055;-79
2023/01/24 11:26:57;;;;;;;7.93;7.13;;;;;;;4.39;73.49;102113.69;5015256;28;20057;-79
2023/01/24 11:29:24;;;;;;;10.05;7.72;;;;;;;4.42;75.23;102117.19;5032937;28;20107;-78
2023/01/24 11:31:55;;;;;;;8.77;7.60;;;;;;;4.40;74.54;102107.59;5032744;28;20149;-79
2023/01/24 11:34:24;;;;;;;7.97;7.13;;;;;;;4.41;74.80;102106.75;5015205;28;20058;-80
2023/01/24 11:37:06;;;;;;;9.88;8.88;;;;;;;4.37;73.75;102105.00;5032760;28;20448;-80
2023/01/24 11:39:50;;;;;;;8.02;7.07;;;;;;;4.37;73.60;102110.22;5032874;28;20064;-80
2023/01/24 11:42:29;;;;;;;11.52;7.68;;;;;;;4.36;73.61;102109.31;5032830;28;20075;-79
2023/01/24 11:44:58;;;;;;;7.57;6.80;;;;;;;4.37;74.73;102102.38;5032394;28;20053;-79
2023/01/24 11:47:34;;;;;;;9.00;6.78;;;;;;;4.34;74.13;102097.13;5032637;28;20071;-80
2023/01/24 11:50:06;;;;;;;7.18;6.20;;;;;;;4.34;74.92;102094.53;5032710;28;20060;-80
2023/01/24 11:52:50;;;;;;;10.88;6.38;;;;;;;4.29;74.15;102090.16;5032537;28;20053;-79
2023/01/24 11:55:31;;;;;;;6.53;5.75;;;;;;;4.29;73.58;102086.66;5014624;28;20065;-79
2023/01/24 11:58:20;;;;;;;8.13;6.65;;;;;;;4.29;73.81;102084.94;5032557;28;20057;-79
2023/01/24 12:00:54;;;;;;;8.38;7.28;;;;;;;4.35;75.28;102088.44;5014756;28;20056;-79
2023/01/24 12:03:32;;;;;;;8.10;6.50;;;;;;;4.31;73.50;102082.34;5032183;28;20092;-79
2023/01/24 12:06:01;;;;;;;8.57;6.68;;;;;;;4.34;74.85;102090.16;5032261;28;20111;-80
2023/01/24 12:08:28;;;;;;;8.07;6.75;;;;;;;4.34;75.10;102082.34;5032064;28;20587;-79
2023/01/24 12:11:25;;;;;;;7.20;6.47;;;;;;;4.29;73.35;102081.44;5032124;28;20088;-79